Time;durP1;ratioP1;P1;durP2;ratioP2;P2;SDS_P1;SDS_P2;PMS_P1;PMS_P2;Temp;Humidity;BMP_temperature;BMP_pressure;BME280_temperature;BME280_humidity;BME280_pressure;Samples;Min_cycle;Max_cycle;Signal;HPM_P1;HPM_P2
2023/07/22 00:00:40;;;;;;;6.72;3.80;;;14.80;99.90;;;;;;5017339;28;20210;-87
2023/07/22 00:03:07;;;;;;;5.85;3.45;;;14.80;99.90;;;;;;5029398;28;20191;-87
2023/07/22 00:05:34;;;;;;;5.15;3.50;;;14.70;99.90;;;;;;5026233;28;20668;-87
2023/07/22 00:08:01;;;;;;;7.38;4.07;;;14.70;99.90;;;;;;5034996;28;20305;-89
2023/07/22 00:10:29;;;;;;;5.00;4.45;;;14.80;99.90;;;;;;5029217;28;20290;-87
2023/07/22 00:12:56;;;;;;;4.63;3.40;;;14.80;99.90;;;;;;5012103;28;20202;-89
2023/07/22 00:15:25;;;;;;;7.60;3.80;;;14.80;99.90;;;;;;5035904;28;20222;-89
2023/07/22 00:17:52;;;;;;;4.05;3.65;;;14.70;99.90;;;;;;5039118;28;20385;-89
2023/07/22 00:20:19;;;;;;;5.90;3.25;;;14.70;99.90;;;;;;5026669;28;20285;-88
2023/07/22 00:22:46;;;;;;;3.88;3.30;;;14.70;99.90;;;;;;5020036;28;20562;-87
2023/07/22 00:25:14;;;;;;;6.78;3.22;;;14.80;99.90;;;;;;5031928;28;20202;-87
2023/07/22 00:27:43;;;;;;;4.00;3.60;;;14.80;99.90;;;;;;5022769;28;20556;-86
2023/07/22 00:30:10;;;;;;;5.47;4.15;;;14.80;99.90;;;;;;5024679;28;20669;-86
2023/07/22 00:32:39;;;;;;;8.00;3.90;;;14.70;99.90;;;;;;5023978;28;20278;-90
2023/07/22 00:35:07;;;;;;;5.38;4.00;;;14.70;99.90;;;;;;5024190;28;20190;-89
2023/07/22 00:37:34;;;;;;;6.05;4.00;;;14.70;99.90;;;;;;5006699;28;20254;-88
2023/07/22 00:40:03;;;;;;;5.28;3.95;;;14.70;99.90;;;;;;5033805;28;20199;-88
2023/07/22 00:42:30;;;;;;;5.55;4.38;;;14.60;99.90;;;;;;5031997;28;20284;-87
2023/07/22 00:47:41;;;;;;;4.97;3.60;;;14.60;99.90;;;;;;5024276;28;20206;-88
2023/07/22 00:50:09;;;;;;;6.50;3.97;;;14.60;99.90;;;;;;5022889;28;20562;-88
2023/07/22 00:52:36;;;;;;;5.85;3.92;;;14.60;99.90;;;;;;5026760;28;20644;-88
2023/07/22 00:55:04;;;;;;;4.20;3.75;;;14.50;99.90;;;;;;5014856;28;20257;-88
2023/07/22 00:57:30;;;;;;;3.88;3.53;;;14.50;99.90;;;;;;5027408;28;20216;-86
2023/07/22 00:59:59;;;;;;;4.68;3.90;;;14.50;99.90;;;;;;5025305;28;20269;-85
2023/07/22 01:02:26;;;;;;;5.43;3.75;;;14.50;99.90;;;;;;5031028;28;20213;-87
2023/07/22 01:04:53;;;;;;;4.53;3.70;;;14.60;99.90;;;;;;5023580;28;20736;-90
2023/07/22 01:07:21;;;;;;;4.20;3.80;;;14.60;99.90;;;;;;5021711;28;20199;-86
2023/07/22 01:09:48;;;;;;;5.40;3.75;;;14.60;99.90;;;;;;5027003;28;20291;-87
2023/07/22 01:12:15;;;;;;;4.40;3.47;;;14.40;99.90;;;;;;5029542;28;20198;-87
2023/07/22 01:14:43;;;;;;;4.32;3.78;;;14.30;99.90;;;;;;5026753;28;20745;-89
2023/07/22 01:17:14;;;;;;;3.72;3.42;;;14.30;99.90;;;;;;5030600;28;20218;-89
2023/07/22 01:19:42;;;;;;;5.68;3.90;;;14.30;99.90;;;;;;5033569;28;20202;-85
2023/07/22 01:22:10;;;;;;;5.63;3.80;;;14.20;99.90;;;;;;5032974;28;20601;-88
2023/07/22 01:24:39;;;;;;;7.32;3.75;;;14.20;99.90;;;;;;5028427;28;20281;-88
2023/07/22 01:27:09;;;;;;;4.20;3.55;;;14.10;99.90;;;;;;5027640;28;20191;-91
2023/07/22 01:29:37;;;;;;;5.32;3.83;;;14.10;99.90;;;;;;5030563;28;20651;-88
2023/07/22 01:32:05;;;;;;;6.03;4.10;;;14.10;99.90;;;;;;5022348;28;20198;-87
2023/07/22 01:34:32;;;;;;;5.10;3.50;;;14.10;99.90;;;;;;5031014;28;20912;-87
2023/07/22 01:36:59;;;;;;;5.88;3.65;;;14.10;99.90;;;;;;5033931;28;20226;-88
2023/07/22 01:39:27;;;;;;;6.97;4.47;;;14.10;99.90;;;;;;5036948;28;20230;-92
2023/07/22 01:41:56;;;;;;;6.55;3.45;;;14.10;99.90;;;;;;5031633;28;21035;-87
2023/07/22 01:44:23;;;;;;;6.82;3.78;;;14.10;99.90;;;;;;5029744;28;20245;-88
2023/07/22 01:46:50;;;;;;;5.40;3.88;;;14.10;99.90;;;;;;5029369;28;20692;-88
2023/07/22 01:49:17;;;;;;;7.40;3.80;;;14.10;99.90;;;;;;5026036;28;20808;-87
2023/07/22 01:51:44;;;;;;;7.03;3.83;;;14.20;99.90;;;;;;5029621;28;20753;-87
2023/07/22 01:54:12;;;;;;;6.25;4.13;;;14.20;99.90;;;;;;5024565;28;20353;-90
2023/07/22 01:56:40;;;;;;;5.72;4.10;;;14.20;99.90;;;;;;5028499;28;20227;-87
2023/07/22 01:59:08;;;;;;;8.00;4.13;;;14.20;99.90;;;;;;5030615;28;20203;-87
2023/07/22 02:01:35;;;;;;;4.40;4.00;;;14.20;99.90;;;;;;5030848;28;20230;-88
2023/07/22 02:04:02;;;;;;;6.95;4.13;;;14.30;99.90;;;;;;5032845;28;20197;-87
2023/07/22 02:06:29;;;;;;;5.57;3.50;;;14.30;99.90;;;;;;5028501;28;20814;-87
2023/07/22 02:08:56;;;;;;;4.38;3.85;;;14.30;99.90;;;;;;5032803;28;20248;-88
2023/07/22 02:11:24;;;;;;;6.43;3.95;;;14.40;99.90;;;;;;5024981;28;20200;-91
2023/07/22 02:13:51;;;;;;;5.97;3.63;;;14.40;99.90;;;;;;5023585;28;20613;-88
2023/07/22 02:16:22;;;;;;;3.95;3.55;;;14.40;99.90;;;;;;5032040;28;20578;-87
2023/07/22 02:18:49;;;;;;;5.07;4.13;;;14.40;99.90;;;;;;5026764;28;20222;-89
2023/07/22 02:21:16;;;;;;;4.22;3.60;;;14.30;99.90;;;;;;5031381;28;20688;-88
2023/07/22 02:23:43;;;;;;;4.90;3.75;;;14.30;99.90;;;;;;5030637;28;20222;-87
2023/07/22 02:26:10;;;;;;;7.88;4.03;;;14.30;99.90;;;;;;5027818;28;20198;-89
2023/07/22 02:28:38;;;;;;;4.05;3.65;;;14.20;99.90;;;;;;5028445;28;20199;-87
2023/07/22 02:31:07;;;;;;;4.65;3.28;;;14.20;99.90;;;;;;5032940;28;20737;-88
2023/07/22 02:33:35;;;;;;;5.72;4.00;;;14.20;99.90;;;;;;5029971;28;20202;-87
2023/07/22 02:36:02;;;;;;;6.18;4.05;;;14.20;99.90;;;;;;5027256;28;20293;-86
2023/07/22 02:38:30;;;;;;;5.10;3.70;;;14.10;99.90;;;;;;5015702;28;20673;-88
2023/07/22 02:41:02;;;;;;;4.85;3.90;;;14.10;99.90;;;;;;5028768;28;20199;-87
2023/07/22 02:43:29;;;;;;;3.85;3.47;;;14.10;99.90;;;;;;5029015;28;20947;-89
2023/07/22 02:45:56;;;;;;;5.60;4.20;;;14.10;99.90;;;;;;5024732;28;20203;-87
2023/07/22 02:48:23;;;;;;;5.03;3.60;;;14.10;99.90;;;;;;5047965;28;20602;-90
2023/07/22 02:50:51;;;;;;;4.72;4.00;;;14.20;99.90;;;;;;5025400;28;20563;-90
2023/07/22 02:53:18;;;;;;;6.18;4.07;;;14.30;99.90;;;;;;5032317;28;20206;-88
2023/07/22 02:55:46;;;;;;;7.90;4.15;;;14.30;99.90;;;;;;5029036;28;20289;-88
2023/07/22 02:58:13;;;;;;;5.03;3.80;;;14.30;99.90;;;;;;5028571;28;20195;-89
2023/07/22 03:00:40;;;;;;;5.18;3.40;;;14.30;99.90;;;;;;5031447;28;20209;-86
2023/07/22 03:03:08;;;;;;;7.10;3.95;;;14.30;99.90;;;;;;5030770;28;20199;-89
2023/07/22 03:05:35;;;;;;;5.10;3.78;;;14.30;99.90;;;;;;5017398;28;20251;-88
2023/07/22 03:08:03;;;;;;;3.80;3.50;;;14.20;99.90;;;;;;5028707;28;20662;-88
2023/07/22 03:10:30;;;;;;;4.65;3.60;;;14.10;99.90;;;;;;5027394;28;20683;-86
2023/07/22 03:12:59;;;;;;;4.53;3.92;;;14.10;99.90;;;;;;5031257;28;20687;-86
2023/07/22 03:15:26;;;;;;;4.28;3.50;;;14.10;99.90;;;;;;5030235;28;20202;-88
2023/07/22 03:17:53;;;;;;;5.35;3.95;;;14.00;99.90;;;;;;5029912;28;20226;-88
2023/07/22 03:20:21;;;;;;;4.57;3.83;;;14.00;99.90;;;;;;5030667;28;20203;-88
2023/07/22 03:22:48;;;;;;;6.00;3.72;;;14.00;99.90;;;;;;5016231;28;20198;-88
2023/07/22 03:25:18;;;;;;;4.00;3.35;;;14.10;99.90;;;;;;5029772;28;20294;-89
2023/07/22 03:27:46;;;;;;;6.68;3.53;;;14.10;99.90;;;;;;5025941;28;20209;-86
2023/07/22 03:30:15;;;;;;;4.40;3.47;;;14.10;99.90;;;;;;5013822;28;20244;-86
2023/07/22 03:32:43;;;;;;;4.63;3.80;;;14.20;99.90;;;;;;5030547;28;20317;-85
2023/07/22 03:35:11;;;;;;;5.72;3.80;;;14.30;99.90;;;;;;5029303;28;20202;-91
2023/07/22 03:37:38;;;;;;;4.93;3.85;;;14.40;99.90;;;;;;5018695;28;20293;-89
2023/07/22 03:40:11;;;;;;;5.35;4.18;;;14.40;99.90;;;;;;5031615;28;20655;-89
2023/07/22 03:42:39;;;;;;;8.60;3.80;;;14.40;99.90;;;;;;5030205;28;20256;-88
2023/07/22 03:45:08;;;;;;;5.72;4.22;;;14.30;99.90;;;;;;5030696;28;20550;-87
2023/07/22 03:47:35;;;;;;;5.78;3.55;;;14.30;99.90;;;;;;5033305;28;20277;-87
2023/07/22 03:50:02;;;;;;;5.18;3.70;;;14.30;99.90;;;;;;5023507;28;20654;-89
2023/07/22 03:52:29;;;;;;;6.32;3.95;;;14.20;99.90;;;;;;5025470;28;20199;-86
2023/07/22 03:54:56;;;;;;;6.80;3.85;;;14.30;99.90;;;;;;5025482;28;20215;-88
2023/07/22 03:57:26;;;;;;;4.13;3.40;;;14.20;99.90;;;;;;5028981;28;20226;-88
2023/07/22 03:59:55;;;;;;;8.18;3.67;;;14.20;99.90;;;;;;5030727;28;20195;-88
2023/07/22 04:02:22;;;;;;;5.47;3.70;;;14.20;99.90;;;;;;5023481;28;20221;-88
2023/07/22 04:04:51;;;;;;;4.70;4.03;;;14.10;99.90;;;;;;5022985;28;20210;-89
2023/07/22 04:07:18;;;;;;;4.35;3.95;;;14.20;99.90;;;;;;5027604;28;20198;-89
2023/07/22 04:09:46;;;;;;;4.97;3.92;;;14.10;99.90;;;;;;5026055;28;20190;-89
2023/07/22 04:12:13;;;;;;;4.72;3.95;;;14.10;99.90;;;;;;5028711;28;20195;-86
2023/07/22 04:14:40;;;;;;;5.32;3.90;;;14.20;99.90;;;;;;5035205;28;20818;-88
2023/07/22 04:17:08;;;;;;;4.22;3.70;;;14.30;99.90;;;;;;5023973;28;20222;-87
2023/07/22 04:19:36;;;;;;;3.80;3.40;;;14.40;99.90;;;;;;5024409;28;20252;-86
2023/07/22 04:22:04;;;;;;;6.70;3.55;;;14.50;99.90;;;;;;5021026;28;20202;-88
2023/07/22 04:24:31;;;;;;;6.28;3.90;;;14.60;99.90;;;;;;5031731;28;20220;-88
2023/07/22 04:26:58;;;;;;;4.28;3.70;;;14.60;99.90;;;;;;5029611;28;20277;-89
2023/07/22 04:29:25;;;;;;;4.65;3.80;;;14.50;99.90;;;;;;5029728;28;20202;-89
2023/07/22 04:31:52;;;;;;;5.82;3.65;;;14.50;99.90;;;;;;5025864;28;20203;-90
2023/07/22 04:34:21;;;;;;;6.63;3.80;;;14.40;99.90;;;;;;5022074;28;20207;-88
2023/07/22 04:36:48;;;;;;;4.47;3.92;;;14.40;99.90;;;;;;5029714;28;20222;-87
2023/07/22 04:39:15;;;;;;;7.47;3.92;;;14.40;99.90;;;;;;5014184;28;20640;-88
2023/07/22 04:41:42;;;;;;;6.82;4.47;;;14.40;99.90;;;;;;5032875;28;20213;-88
2023/07/22 04:44:09;;;;;;;5.32;4.05;;;14.60;99.90;;;;;;5032605;28;20252;-86
2023/07/22 04:46:36;;;;;;;6.28;4.15;;;14.70;99.90;;;;;;5023761;28;20203;-87
2023/07/22 04:49:03;;;;;;;4.53;4.10;;;14.80;99.90;;;;;;5023198;28;20602;-90
2023/07/22 04:51:32;;;;;;;6.95;4.05;;;14.90;99.90;;;;;;5027341;28;20229;-89
2023/07/22 04:53:59;;;;;;;4.85;4.10;;;15.10;99.90;;;;;;5030361;28;20210;-86
2023/07/22 04:56:26;;;;;;;6.38;3.63;;;15.30;99.90;;;;;;5019255;28;20243;-88
2023/07/22 04:58:53;;;;;;;5.20;4.15;;;15.50;99.90;;;;;;5026335;28;20807;-85
2023/07/22 05:01:20;;;;;;;4.28;3.72;;;15.60;99.90;;;;;;5027758;28;20278;-86
2023/07/22 05:03:47;;;;;;;4.68;3.90;;;15.60;99.90;;;;;;5030061;28;20558;-89
2023/07/22 05:06:14;;;;;;;6.10;4.03;;;15.70;99.90;;;;;;5027789;28;20634;-88
2023/07/22 05:08:43;;;;;;;5.72;3.90;;;15.70;99.90;;;;;;5033244;28;20213;-88
2023/07/22 05:11:09;;;;;;;3.83;3.35;;;15.90;99.90;;;;;;5034498;28;20685;-87
2023/07/22 05:13:36;;;;;;;4.43;3.90;;;16.30;99.90;;;;;;5032482;28;20622;-87
2023/07/22 05:16:04;;;;;;;4.35;3.28;;;16.60;99.90;;;;;;5031512;28;20207;-85
2023/07/22 05:18:31;;;;;;;5.35;3.53;;;16.80;99.90;;;;;;5029769;28;20238;-89
2023/07/22 05:20:58;;;;;;;4.57;3.35;;;17.40;97.50;;;;;;5030853;28;20201;-85
2023/07/22 05:23:24;;;;;;;5.38;3.08;;;18.00;95.60;;;;;;5029334;28;20203;-89
2023/07/22 05:25:54;;;;;;;3.72;3.15;;;18.10;95.40;;;;;;5028751;28;20455;-86
2023/07/22 05:28:21;;;;;;;6.25;3.60;;;18.00;95.40;;;;;;5032362;28;20667;-88
2023/07/22 05:30:48;;;;;;;5.80;3.50;;;18.10;95.00;;;;;;5021208;28;20654;-91
2023/07/22 05:33:15;;;;;;;5.07;3.70;;;17.90;95.60;;;;;;5026114;28;20202;-90
2023/07/22 05:35:42;;;;;;;4.30;3.47;;;17.90;95.40;;;;;;5030829;28;20697;-86
2023/07/22 05:38:09;;;;;;;4.38;3.20;;;17.90;95.70;;;;;;5030574;28;20218;-89
2023/07/22 05:40:36;;;;;;;4.07;3.40;;;17.90;95.70;;;;;;5034455;28;20203;-85
2023/07/22 05:43:04;;;;;;;4.65;2.90;;;18.10;94.30;;;;;;5030154;28;20274;-89
2023/07/22 05:45:31;;;;;;;3.83;2.95;;;18.20;94.20;;;;;;5027587;28;20647;-87
2023/07/22 05:47:58;;;;;;;4.20;2.92;;;18.10;93.80;;;;;;5024793;28;20198;-85
2023/07/22 05:50:25;;;;;;;5.00;3.50;;;18.20;93.80;;;;;;5029683;28;20214;-89
2023/07/22 05:52:52;;;;;;;4.88;3.38;;;18.50;92.30;;;;;;5028643;28;20252;-86
2023/07/22 05:55:19;;;;;;;5.13;2.95;;;18.70;92.10;;;;;;5029978;28;20621;-88
2023/07/22 05:57:45;;;;;;;3.92;3.08;;;18.70;91.50;;;;;;5021419;28;20226;-87
2023/07/22 06:00:15;;;;;;;3.38;2.70;;;18.70;91.80;;;;;;5023661;28;20761;-87
2023/07/22 06:02:42;;;;;;;4.03;3.20;;;18.80;91.40;;;;;;5027867;28;20191;-87
2023/07/22 06:05:10;;;;;;;3.20;2.90;;;18.80;91.70;;;;;;5026144;28;20673;-86
2023/07/22 06:07:37;;;;;;;4.70;3.03;;;18.80;91.70;;;;;;5025937;28;20198;-88
2023/07/22 06:10:05;;;;;;;4.60;3.13;;;18.80;91.20;;;;;;5027331;28;20194;-86
2023/07/22 06:12:32;;;;;;;3.70;2.97;;;19.10;90.50;;;;;;5030310;28;20203;-85
2023/07/22 06:14:58;;;;;;;4.13;3.05;;;19.20;89.00;;;;;;5033170;28;20210;-86
2023/07/22 06:17:27;;;;;;;3.45;2.90;;;19.30;89.10;;;;;;5031493;28;20218;-87
2023/07/22 06:19:53;;;;;;;8.88;2.70;;;19.30;87.80;;;;;;5029489;28;20195;-89
2023/07/22 06:22:20;;;;;;;5.15;2.67;;;19.30;84.30;;;;;;5027979;28;20849;-86
2023/07/22 06:24:47;;;;;;;3.30;2.95;;;19.10;87.90;;;;;;5025434;28;20605;-89
2023/07/22 06:27:14;;;;;;;4.97;2.70;;;19.10;87.50;;;;;;5026578;28;20205;-85
2023/07/22 06:29:41;;;;;;;3.05;2.75;;;18.90;90.10;;;;;;5013019;28;20206;-87
2023/07/22 06:32:08;;;;;;;3.90;2.97;;;18.90;88.70;;;;;;5032297;28;20277;-86
2023/07/22 06:34:37;;;;;;;4.57;3.00;;;18.90;90.30;;;;;;5019491;28;20208;-87
2023/07/22 06:37:04;;;;;;;3.55;2.55;;;19.20;88.30;;;;;;5025571;28;20222;-87
2023/07/22 06:39:31;;;;;;;2.97;2.65;;;19.40;84.00;;;;;;5032311;28;20203;-85
2023/07/22 06:41:58;;;;;;;4.60;2.78;;;19.50;80.50;;;;;;5029498;28;20260;-86
2023/07/22 06:44:25;;;;;;;3.33;2.50;;;19.30;78.00;;;;;;5030314;28;20194;-85
2023/07/22 06:46:52;;;;;;;2.53;2.33;;;19.20;81.00;;;;;;5031637;28;20678;-87
2023/07/22 06:49:19;;;;;;;2.78;2.45;;;19.40;83.30;;;;;;5027897;28;20664;-87
2023/07/22 06:51:47;;;;;;;3.40;2.63;;;19.60;80.50;;;;;;5027789;28;20680;-87
2023/07/22 06:54:14;;;;;;;3.40;2.65;;;19.60;77.00;;;;;;5027658;28;20195;-85
2023/07/22 06:56:41;;;;;;;2.88;2.40;;;19.60;67.20;;;;;;5027815;28;20611;-88
2023/07/22 06:59:08;;;;;;;3.78;2.17;;;19.60;71.50;;;;;;5025103;28;20218;-86
2023/07/22 07:01:35;;;;;;;4.68;2.72;;;19.70;72.60;;;;;;5027417;28;20202;-88
2023/07/22 07:04:02;;;;;;;3.85;2.45;;;19.80;69.60;;;;;;5033063;28;20203;-85
2023/07/22 07:06:30;;;;;;;4.13;2.60;;;19.80;72.90;;;;;;5029224;28;20713;-86
2023/07/22 07:09:00;;;;;;;2.47;2.10;;;19.80;60.40;;;;;;5026089;28;20513;-88
2023/07/22 07:11:27;;;;;;;3.13;2.63;;;19.90;59.80;;;;;;5019282;28;20236;-85
2023/07/22 07:13:54;;;;;;;3.35;2.20;;;19.80;52.10;;;;;;5026792;28;20558;-86
2023/07/22 07:16:21;;;;;;;4.43;2.38;;;19.80;47.50;;;;;;5030014;28;20199;-89
2023/07/22 07:18:48;;;;;;;2.40;2.20;;;19.90;55.80;;;;;;5016948;28;20326;-91
2023/07/22 07:21:15;;;;;;;3.58;2.38;;;19.90;57.10;;;;;;5029333;28;20671;-89
2023/07/22 07:23:43;;;;;;;4.97;2.00;;;19.90;55.80;;;;;;5028762;28;20732;-90
2023/07/22 07:26:13;;;;;;;4.18;2.20;;;20.10;56.00;;;;;;5031265;28;20198;-86
2023/07/22 07:28:40;;;;;;;4.57;2.28;;;20.10;56.10;;;;;;5031505;28;20297;-85
2023/07/22 07:32:09;;;;;;;2.70;2.30;;;20.10;56.10;;;;;;5028687;28;20255;-92
2023/07/22 07:34:36;;;;;;;5.07;2.50;;;20.20;54.30;;;;;;5027333;28;20213;-87
2023/07/22 07:37:03;;;;;;;2.38;2.15;;;20.50;47.10;;;;;;5027797;28;20639;-91
2023/07/22 07:39:31;;;;;;;4.75;2.47;;;20.60;50.30;;;;;;5026765;28;20203;-90
2023/07/22 08:20:30;;;;;;;4.30;2.50;;;20.70;32.70;;;;;;4975658;28;20754;-89
2023/07/22 08:22:57;;;;;;;4.22;2.35;;;20.60;34.50;;;;;;4991764;28;20564;-88
2023/07/22 08:28:06;;;;;;;2.95;2.53;;;20.80;40.00;;;;;;4981278;28;20208;-89
2023/07/22 08:30:35;;;;;;;3.70;2.20;;;21.00;37.90;;;;;;4991796;28;20272;-91
2023/07/22 08:33:02;;;;;;;3.03;2.22;;;21.20;32.50;;;;;;4986597;28;20200;-89
2023/07/22 08:35:29;;;;;;;4.20;2.40;;;21.40;33.20;;;;;;4981945;28;20204;-89
2023/07/22 08:37:56;;;;;;;2.35;2.15;;;22.30;31.00;;;;;;4985642;28;20252;-90
2023/07/22 08:40:24;;;;;;;2.15;1.95;;;23.60;23.30;;;;;;4983983;28;20200;-89
2023/07/22 08:56:51;;;;;;;3.08;2.30;;;26.70;14.90;;;;;;4984914;28;20207;-91
2023/07/22 08:59:19;;;;;;;3.75;2.63;;;27.50;13.90;;;;;;4990730;28;20270;-90
2023/07/22 09:01:47;;;;;;;2.95;2.38;;;28.50;10.50;;;;;;4994994;28;20246;-92
2023/07/22 09:12:25;;;;;;;3.10;2.75;;;30.50;3.50;;;;;;4990324;28;20679;-88
2023/07/22 09:14:53;;;;;;;3.20;2.67;;;30.30;5.10;;;;;;4981833;28;20203;-92
2023/07/22 09:17:20;;;;;;;2.83;2.50;;;30.60;3.50;;;;;;4988557;28;20287;-92
2023/07/22 09:19:47;;;;;;;5.28;2.30;;;30.20;4.60;;;;;;4987648;28;20223;-93
2023/07/22 09:22:14;;;;;;;4.50;2.65;;;30.10;6.30;;;;;;4986777;28;20204;-93
2023/07/22 09:27:35;;;;;;;2.58;2.38;;;28.80;7.70;;;;;;4982336;28;20286;-93
2023/07/22 09:30:03;;;;;;;2.38;2.20;;;28.60;8.50;;;;;;4994708;28;20199;-94
2023/07/22 09:35:19;;;;;;;2.88;2.40;;;29.30;6.00;;;;;;4990836;28;20223;-93
2023/07/22 09:37:46;;;;;;;2.78;2.53;;;29.70;5.90;;;;;;4991623;28;20214;-94
2023/07/22 09:40:20;;;;;;;3.35;2.40;;;29.30;6.30;;;;;;4985885;28;20218;-94
2023/07/22 09:45:38;;;;;;;2.58;2.47;;;29.50;6.80;;;;;;4983891;28;20200;-94
2023/07/22 09:48:06;;;;;;;2.70;2.38;;;30.20;5.10;;;;;;4984846;28;20196;-94
2023/07/22 09:56:04;;;;;;;2.78;2.60;;;30.40;3.30;;;;;;4974594;28;20577;-94
2023/07/22 09:58:36;;;;;;;2.85;2.65;;;30.20;3.30;;;;;;4984261;28;21164;-95
2023/07/22 10:01:25;;;;;;;2.80;2.60;;;30.00;5.00;;;;;;4990012;28;20355;-95
2023/07/22 10:06:36;;;;;;;4.53;3.10;;;31.70;2.80;;;;;;4987280;28;20649;-93
2023/07/22 10:11:45;;;;;;;2.75;2.42;;;30.50;5.30;;;;;;4990201;28;20219;-93
2023/07/22 10:16:55;;;;;;;8.32;3.55;;;28.80;8.30;;;;;;4981969;28;20215;-93
2023/07/22 10:19:23;;;;;;;4.00;2.80;;;29.60;6.80;;;;;;4987149;28;20227;-93
2023/07/22 10:21:50;;;;;;;14.02;5.72;;;29.40;5.00;;;;;;5002017;28;20196;-93
2023/07/22 10:24:18;;;;;;;2.88;2.50;;;29.20;6.50;;;;;;4990321;28;20219;-94
2023/07/22 10:26:45;;;;;;;108.88;99.18;;;27.80;8.00;;;;;;4985563;28;20211;-94
2023/07/22 10:29:14;;;;;;;4.22;3.13;;;27.20;11.60;;;;;;4990117;28;20258;-91
2023/07/22 10:34:22;;;;;;;5.10;3.90;;;25.90;11.00;;;;;;4987178;28;20199;-90
2023/07/22 10:36:49;;;;;;;4.07;3.17;;;25.70;13.50;;;;;;4985470;28;20805;-91
2023/07/22 10:42:08;;;;;;;9.73;8.73;;;25.20;11.30;;;;;;4977504;28;20263;-91
2023/07/22 10:47:33;;;;;;;4.07;2.85;;;24.90;14.10;;;;;;5000377;28;20724;-94
2023/07/22 10:55:29;;;;;;;6.22;2.10;;;25.90;10.40;;;;;;4993646;28;20210;-94
2023/07/22 10:57:56;;;;;;;3.67;2.30;;;25.90;9.20;;;;;;5005624;28;20231;-94
2023/07/22 11:00:31;;;;;;;2.00;1.80;;;25.70;12.50;;;;;;4999630;28;20267;-91
2023/07/22 11:03:12;;;;;;;2.78;2.20;;;25.60;9.80;;;;;;4983103;28;20569;-89
2023/07/22 11:05:50;;;;;;;2.00;1.80;;;25.60;10.90;;;;;;4994131;28;20226;-91
2023/07/22 11:08:17;;;;;;;4.68;2.10;;;25.50;9.60;;;;;;4986101;28;20257;-89
2023/07/22 11:10:55;;;;;;;2.38;1.98;;;25.70;10.00;;;;;;4982650;28;20566;-90
2023/07/22 11:13:29;;;;;;;3.00;2.60;;;26.00;10.60;;;;;;4997480;28;20210;-94
2023/07/22 11:21:23;;;;;;;3.42;1.92;;;25.90;10.90;;;;;;4988203;28;20562;-91
2023/07/22 11:23:52;;;;;;;1.70;1.60;;;25.70;11.00;;;;;;4985093;28;20198;-93
2023/07/22 11:39:42;;;;;;;3.90;2.08;;;25.70;11.10;;;;;;4988175;28;20248;-90
2023/07/22 11:55:56;;;;;;;2.50;2.30;;;26.50;8.50;;;;;;5188547;23;20336;-89
2023/07/22 11:58:26;;;;;;;3.05;2.13;;;26.40;9.00;;;;;;5026377;28;20233;-88
2023/07/22 12:01:03;;;;;;;2.10;1.95;;;26.00;9.50;;;;;;5044785;28;20217;-91
2023/07/22 12:03:33;;;;;;;2.67;2.20;;;25.70;11.00;;;;;;5038009;28;20196;-88
2023/07/22 12:06:02;;;;;;;2.55;2.30;;;25.40;10.10;;;;;;5042248;28;20195;-88
2023/07/22 12:08:29;;;;;;;7.63;2.20;;;25.50;9.90;;;;;;5024416;28;20269;-88
2023/07/22 12:11:01;;;;;;;4.57;2.30;;;25.90;10.20;;;;;;5028789;28;20198;-89
2023/07/22 12:13:28;;;;;;;3.53;2.15;;;25.90;9.90;;;;;;5041693;28;20202;-87
2023/07/22 12:16:01;;;;;;;2.67;2.03;;;25.90;11.00;;;;;;5031491;28;20195;-88
2023/07/22 12:18:29;;;;;;;5.13;2.40;;;25.90;11.20;;;;;;5021602;28;20221;-88
2023/07/22 12:20:58;;;;;;;4.43;2.05;;;25.60;9.00;;;;;;5031675;28;20203;-89
2023/07/22 12:23:25;;;;;;;2.10;1.90;;;25.40;8.40;;;;;;5048821;28;20202;-89
2023/07/22 12:25:52;;;;;;;4.45;2.00;;;25.60;11.20;;;;;;5066124;28;20871;-88
2023/07/22 12:28:21;;;;;;;2.30;2.10;;;25.90;10.00;;;;;;5067296;28;20190;-88
2023/07/22 12:30:48;;;;;;;2.38;2.20;;;26.00;10.20;;;;;;5060995;28;20196;-88
2023/07/22 12:33:15;;;;;;;2.35;1.90;;;25.90;10.50;;;;;;5046350;28;20573;-88
2023/07/22 12:35:42;;;;;;;2.55;1.98;;;26.00;10.30;;;;;;5062228;28;20264;-88
2023/07/22 12:38:09;;;;;;;3.20;1.85;;;26.00;8.60;;;;;;5026701;28;20201;-88
2023/07/22 12:40:37;;;;;;;2.30;2.10;;;25.80;9.20;;;;;;5063937;28;20209;-89
2023/07/22 12:43:04;;;;;;;2.17;1.98;;;25.80;10.50;;;;;;5068383;28;20250;-89
2023/07/22 12:48:13;;;;;;;2.20;1.98;;;26.10;11.50;;;;;;5048996;28;20577;-88
2023/07/22 12:50:40;;;;;;;2.45;2.25;;;26.30;10.10;;;;;;5069362;28;20212;-90
2023/07/22 12:53:08;;;;;;;2.22;2.03;;;26.30;9.60;;;;;;5068455;28;20338;-87
2023/07/22 12:55:35;;;;;;;2.22;2.03;;;26.00;10.90;;;;;;5065868;28;20205;-91
2023/07/22 12:58:02;;;;;;;2.47;2.05;;;25.90;9.20;;;;;;5070587;28;20216;-91
2023/07/22 13:00:29;;;;;;;3.25;2.38;;;25.70;10.00;;;;;;5046492;28;20225;-89
2023/07/22 13:02:58;;;;;;;3.55;2.30;;;25.70;8.60;;;;;;5066875;28;20201;-90
2023/07/22 13:05:26;;;;;;;2.55;2.22;;;25.70;9.90;;;;;;5030335;28;20200;-90
2023/07/22 13:07:53;;;;;;;4.10;2.30;;;25.80;8.40;;;;;;5049596;28;20653;-90
2023/07/22 13:10:21;;;;;;;2.95;2.22;;;25.50;10.40;;;;;;5046681;28;20240;-89
2023/07/22 13:12:49;;;;;;;4.30;2.28;;;25.20;10.50;;;;;;5063605;28;20198;-88
2023/07/22 13:15:16;;;;;;;5.95;2.50;;;25.20;12.90;;;;;;5067501;28;20201;-91
2023/07/22 13:17:46;;;;;;;2.20;2.00;;;25.10;10.30;;;;;;5047835;28;20225;-89
2023/07/22 13:20:15;;;;;;;3.10;2.03;;;25.20;9.40;;;;;;5048703;28;20240;-89
2023/07/22 13:25:38;;;;;;;2.70;2.28;;;25.30;11.00;;;;;;5062828;28;20209;-89
2023/07/22 13:28:05;;;;;;;3.58;2.13;;;25.10;11.80;;;;;;5058341;28;20662;-89
2023/07/22 13:30:32;;;;;;;2.47;2.17;;;24.90;11.70;;;;;;5049567;28;20202;-90
2023/07/22 13:35:41;;;;;;;2.63;2.20;;;25.40;11.00;;;;;;5068930;28;20210;-89
2023/07/22 13:38:08;;;;;;;3.22;2.25;;;25.60;9.70;;;;;;5052981;28;20200;-89
2023/07/22 13:40:35;;;;;;;3.00;2.15;;;25.60;10.00;;;;;;5054952;28;20222;-90
2023/07/22 13:43:02;;;;;;;3.70;2.20;;;25.60;12.20;;;;;;5070370;28;20221;-88
2023/07/22 13:45:29;;;;;;;1.98;1.88;;;25.60;9.70;;;;;;5043512;28;20237;-88
2023/07/22 13:47:56;;;;;;;4.25;2.50;;;25.60;9.60;;;;;;5070919;28;20201;-90
2023/07/22 13:50:23;;;;;;;5.55;2.30;;;25.60;9.80;;;;;;5050868;28;20204;-89
2023/07/22 13:52:51;;;;;;;2.60;2.28;;;25.60;9.10;;;;;;5055523;28;20223;-90
2023/07/22 13:55:18;;;;;;;5.22;2.00;;;25.50;10.70;;;;;;5053022;28;20208;-90
2023/07/22 13:57:47;;;;;;;2.33;2.13;;;25.50;9.90;;;;;;5074971;28;20205;-92
2023/07/22 14:00:14;;;;;;;2.22;2.03;;;25.60;11.00;;;;;;5071745;28;20225;-88
2023/07/22 14:05:33;;;;;;;3.03;2.00;;;26.00;8.20;;;;;;5068107;28;20205;-87
2023/07/22 14:11:28;;;;;;;3.15;2.30;;;25.60;9.50;;;;;;5072469;28;20212;-91
2023/07/22 14:14:30;;;;;;;3.13;1.98;;;25.60;8.70;;;;;;5070778;28;20198;-91
2023/07/22 14:16:58;;;;;;;2.30;2.10;;;25.30;8.70;;;;;;5072505;28;20256;-89
2023/07/22 14:22:27;;;;;;;2.70;2.10;;;25.00;10.10;;;;;;5043687;28;20260;-89
2023/07/22 14:24:54;;;;;;;4.05;2.20;;;25.10;8.70;;;;;;5044516;28;20198;-91
2023/07/22 14:27:23;;;;;;;2.75;2.20;;;25.30;9.70;;;;;;5066060;28;20264;-91
2023/07/22 14:29:49;;;;;;;2.63;2.42;;;25.60;7.70;;;;;;5044393;28;20208;-92
2023/07/22 14:32:16;;;;;;;2.67;2.20;;;25.80;7.40;;;;;;5069490;28;20194;-90
2023/07/22 14:34:43;;;;;;;2.10;1.92;;;25.70;7.70;;;;;;5077356;28;20227;-89
2023/07/22 14:37:11;;;;;;;6.38;2.40;;;25.50;8.70;;;;;;5077661;28;20219;-92
2023/07/22 14:39:37;;;;;;;3.20;2.33;;;25.20;8.70;;;;;;5074399;28;20588;-91
2023/07/22 14:42:11;;;;;;;2.30;2.10;;;25.10;7.50;;;;;;5064585;28;20201;-93
2023/07/22 14:45:21;;;;;;;4.40;2.40;;;24.90;8.20;;;;;;5072361;28;20201;-90
2023/07/22 14:50:30;;;;;;;3.78;2.63;;;25.00;8.00;;;;;;5043264;28;20215;-90
2023/07/22 14:52:58;;;;;;;2.58;2.38;;;25.20;8.10;;;;;;5065752;28;20284;-87
2023/07/22 14:55:28;;;;;;;2.72;2.03;;;25.40;7.00;;;;;;5070718;28;20317;-91
2023/07/22 14:57:55;;;;;;;5.25;2.42;;;25.50;8.10;;;;;;5046900;28;20658;-91
2023/07/22 15:03:15;;;;;;;2.80;2.50;;;25.10;8.00;;;;;;5072061;28;20209;-90
2023/07/22 15:05:42;;;;;;;2.72;2.50;;;24.90;8.70;;;;;;5081247;28;20209;-91
2023/07/22 15:08:09;;;;;;;2.40;2.20;;;24.90;9.70;;;;;;5076940;28;20201;-89
2023/07/22 15:13:19;;;;;;;2.88;2.40;;;25.40;7.50;;;;;;5069083;28;20927;-88
2023/07/22 15:15:47;;;;;;;2.80;2.60;;;25.60;8.30;;;;;;5070638;28;20515;-90
2023/07/22 15:18:15;;;;;;;2.72;2.53;;;25.60;7.60;;;;;;5045063;28;20309;-90
2023/07/22 15:20:43;;;;;;;4.32;2.72;;;25.70;8.40;;;;;;5064938;28;20645;-89
2023/07/22 15:23:11;;;;;;;4.38;2.70;;;25.60;7.60;;;;;;5066515;28;20198;-89
2023/07/22 15:25:37;;;;;;;3.78;2.90;;;25.50;8.70;;;;;;5050864;28;20260;-88
2023/07/22 15:28:04;;;;;;;2.80;2.60;;;25.40;8.00;;;;;;5065470;28;20201;-90
2023/07/22 15:30:31;;;;;;;3.33;2.72;;;25.20;9.10;;;;;;5038933;28;20201;-89
2023/07/22 15:35:40;;;;;;;3.17;2.88;;;24.90;8.50;;;;;;5032991;28;20741;-90